Time;durP1;ratioP1;P1;durP2;ratioP2;P2;SDS_P1;SDS_P2;PMS_P1;PMS_P2;Temp;Humidity;BMP_temperature;BMP_pressure;BME280_temperature;BME280_humidity;BME280_pressure;Samples;Min_cycle;Max_cycle;Signal;HPM_P1;HPM_P2
2022/12/30 00:01:24;;;;;;;0.57;0.40;;;5.80;99.90;;;;;;5159308;27;20043;-80
2022/12/30 00:03:50;;;;;;;2.83;0.82;;;5.90;99.90;;;;;;5159206;27;20098;-80
2022/12/30 00:06:19;;;;;;;0.45;0.45;;;5.90;99.90;;;;;;5162469;27;20094;-79
2022/12/30 00:08:47;;;;;;;0.22;0.20;;;5.90;99.90;;;;;;5161849;27;20062;-80
2022/12/30 00:11:19;;;;;;;0.55;0.45;;;5.80;99.90;;;;;;5142933;27;20079;-80
2022/12/30 00:34:06;;;;;;;0.88;0.77;;;5.70;99.90;;;;;;5162427;27;20051;-79
2022/12/30 00:36:32;;;;;;;0.25;0.25;;;5.60;99.90;;;;;;5161413;27;20042;-79
2022/12/30 00:38:58;;;;;;;0.20;0.20;;;5.60;99.90;;;;;;5160895;27;20099;-79
2022/12/30 00:44:08;;;;;;;0.20;0.20;;;5.60;99.90;;;;;;5161567;27;20126;-80
2022/12/30 00:46:35;;;;;;;0.00;0.00;;;5.50;99.90;;;;;;5160354;27;20083;-80
2022/12/30 00:57:15;;;;;;;0.10;0.10;;;5.40;99.90;;;;;;5161470;27;20057;-81
2022/12/30 00:59:41;;;;;;;0.22;0.22;;;5.40;99.90;;;;;;5160858;27;20051;-81
2022/12/30 01:02:06;;;;;;;0.00;0.00;;;5.30;99.90;;;;;;5160113;27;20046;-80
2022/12/30 01:04:32;;;;;;;0.10;0.10;;;5.30;99.90;;;;;;5161872;27;20042;-80
2022/12/30 01:06:57;;;;;;;0.20;0.20;;;5.30;99.90;;;;;;5160698;27;20038;-80
2022/12/30 01:09:23;;;;;;;1.27;1.23;;;5.20;99.90;;;;;;5161125;27;20373;-80
2022/12/30 01:12:07;;;;;;;1.75;1.27;;;5.20;99.90;;;;;;5160512;27;20099;-81
2022/12/30 01:14:40;;;;;;;0.75;0.75;;;5.20;99.90;;;;;;5160659;27;20064;-80
2022/12/30 01:17:07;;;;;;;0.30;0.30;;;5.40;99.90;;;;;;5160411;27;20509;-80
2022/12/30 01:19:33;;;;;;;0.00;0.00;;;5.50;99.90;;;;;;5160150;27;20035;-81
2022/12/30 01:21:58;;;;;;;0.28;0.28;;;5.70;99.90;;;;;;5161032;27;20375;-80
2022/12/30 01:24:24;;;;;;;0.63;0.63;;;5.70;99.90;;;;;;5160999;27;20030;-81
2022/12/30 01:26:50;;;;;;;0.32;0.32;;;5.60;99.90;;;;;;5160539;27;20042;-80
2022/12/30 01:29:21;;;;;;;24.45;1.17;;;5.50;99.90;;;;;;5160837;27;20039;-80
2022/12/30 01:31:47;;;;;;;0.52;0.45;;;5.60;99.90;;;;;;5160462;27;20047;-80
2022/12/30 01:34:12;;;;;;;2.72;1.02;;;5.60;99.90;;;;;;5159857;27;20111;-81
2022/12/30 01:36:38;;;;;;;0.40;0.30;;;5.60;99.90;;;;;;5159489;27;20048;-81
2022/12/30 01:39:03;;;;;;;1.20;1.13;;;5.60;99.90;;;;;;5160669;27;20050;-80
2022/12/30 01:41:29;;;;;;;1.95;0.73;;;5.60;99.90;;;;;;5160099;27;20039;-80
2022/12/30 01:43:55;;;;;;;0.32;0.32;;;5.60;99.90;;;;;;5158540;27;20035;-78
2022/12/30 01:46:27;;;;;;;0.10;0.10;;;5.70;99.90;;;;;;5157329;27;20084;-79
2022/12/30 01:48:55;;;;;;;0.50;0.50;;;5.70;99.90;;;;;;5157639;27;20084;-78
2022/12/30 01:51:26;;;;;;;0.73;0.73;;;5.70;99.90;;;;;;5158060;27;20042;-79
2022/12/30 01:53:54;;;;;;;1.42;1.33;;;5.60;99.90;;;;;;5157599;27;20087;-79
2022/12/30 01:56:34;;;;;;;0.00;0.00;;;5.60;99.90;;;;;;5158302;27;20087;-78
2022/12/30 01:59:10;;;;;;;0.00;0.00;;;5.60;99.90;;;;;;5157787;27;20057;-79
2022/12/30 02:01:36;;;;;;;0.47;0.47;;;5.60;99.90;;;;;;5157506;27;20103;-79
2022/12/30 02:04:08;;;;;;;0.00;0.00;;;5.60;99.90;;;;;;5157821;27;20038;-79
2022/12/30 02:06:58;;;;;;;0.00;0.00;;;5.60;99.90;;;;;;5157396;27;20553;-79
2022/12/30 02:09:29;;;;;;;0.15;0.15;;;5.60;99.90;;;;;;5157750;27;20050;-79
2022/12/30 02:11:55;;;;;;;0.60;0.60;;;5.60;99.90;;;;;;5137115;28;20043;-79
2022/12/30 02:14:22;;;;;;;0.75;0.47;;;5.50;99.90;;;;;;5139578;27;20117;-79
2022/12/30 02:17:13;;;;;;;0.00;0.00;;;5.40;99.90;;;;;;5155633;27;20050;-79
2022/12/30 02:19:53;;;;;;;1.38;0.93;;;5.40;99.90;;;;;;5160993;27;20493;-79
2022/12/30 02:22:43;;;;;;;14.55;2.03;;;5.30;99.90;;;;;;5160952;27;20442;-78
2022/12/30 02:25:40;;;;;;;0.00;0.00;;;5.30;99.90;;;;;;5161459;27;20046;-78
2022/12/30 02:28:14;;;;;;;1.45;0.45;;;5.20;99.90;;;;;;5160969;27;20051;-78
2022/12/30 02:30:48;;;;;;;1.58;1.48;;;5.20;99.90;;;;;;5161350;27;20035;-79
2022/12/30 02:33:23;;;;;;;8.68;0.77;;;5.20;99.90;;;;;;5160998;27;20042;-78
2022/12/30 02:36:05;;;;;;;0.57;0.57;;;5.10;99.90;;;;;;5161153;27;20049;-79
2022/12/30 02:39:10;;;;;;;0.00;0.00;;;5.00;99.90;;;;;;5161100;27;20047;-79
2022/12/30 02:45:04;;;;;;;0.35;0.35;;;5.00;99.90;;;;;;5161092;27;20042;-78
2022/12/30 02:47:41;;;;;;;32.45;2.20;;;4.90;99.90;;;;;;5160340;27;20043;-79
2022/12/30 02:52:57;;;;;;;4.57;1.00;;;4.70;99.90;;;;;;5160777;27;20055;-79
2022/12/30 02:55:23;;;;;;;0.00;0.00;;;4.60;99.90;;;;;;5160416;27;20400;-79
2022/12/30 02:57:49;;;;;;;0.50;0.50;;;4.50;99.90;;;;;;5161220;27;20038;-79
2022/12/30 03:06:10;;;;;;;0.82;0.65;;;4.40;99.90;;;;;;5160588;27;20085;-79
2022/12/30 03:08:50;;;;;;;0.05;0.05;;;4.50;99.90;;;;;;5160624;27;20485;-79
2022/12/30 03:11:17;;;;;;;8.30;2.08;;;4.40;99.90;;;;;;5159842;27;20049;-79
2022/12/30 03:13:49;;;;;;;0.00;0.00;;;4.40;99.90;;;;;;5160991;27;20047;-79
2022/12/30 03:16:17;;;;;;;0.70;0.55;;;4.30;99.90;;;;;;5160166;27;20087;-79
2022/12/30 03:18:44;;;;;;;0.75;0.75;;;4.30;99.90;;;;;;5160630;27;20054;-79
2022/12/30 03:21:11;;;;;;;0.13;0.13;;;4.30;99.90;;;;;;5160128;27;20106;-79
2022/12/30 03:29:14;;;;;;;10.40;1.75;;;4.30;99.90;;;;;;5160719;27;20102;-79
2022/12/30 03:31:40;;;;;;;0.00;0.00;;;4.30;99.90;;;;;;5159865;27;20058;-79
2022/12/30 03:34:06;;;;;;;0.22;0.15;;;4.30;99.90;;;;;;5160860;27;20118;-79
2022/12/30 03:36:41;;;;;;;10.45;1.48;;;4.30;99.90;;;;;;5159845;27;20041;-79
2022/12/30 03:39:39;;;;;;;0.65;0.63;;;4.40;99.90;;;;;;5160346;27;20500;-78
2022/12/30 03:42:06;;;;;;;0.80;0.55;;;4.40;99.90;;;;;;5159751;27;20050;-80
2022/12/30 03:44:33;;;;;;;0.00;0.00;;;4.40;99.90;;;;;;5159699;27;20043;-79
2022/12/30 03:46:59;;;;;;;0.10;0.10;;;4.40;99.90;;;;;;5159338;27;20370;-79
2022/12/30 03:49:24;;;;;;;0.65;0.65;;;4.40;99.90;;;;;;5159683;27;20068;-79
2022/12/30 03:51:50;;;;;;;0.22;0.22;;;4.40;99.90;;;;;;5159189;27;20084;-79
2022/12/30 03:54:16;;;;;;;0.00;0.00;;;4.30;99.90;;;;;;5159658;27;20058;-80
2022/12/30 03:56:41;;;;;;;0.00;0.00;;;4.30;99.90;;;;;;5159573;27;20034;-79
2022/12/30 03:59:07;;;;;;;1.13;0.70;;;4.40;99.90;;;;;;5159822;27;20062;-78
2022/12/30 04:01:32;;;;;;;0.10;0.10;;;4.30;99.90;;;;;;5140428;27;20035;-79
2022/12/30 04:03:58;;;;;;;0.10;0.10;;;4.30;99.90;;;;;;5159524;27;20148;-79
2022/12/30 04:06:24;;;;;;;0.10;0.10;;;4.40;99.90;;;;;;5159368;27;20039;-78
2022/12/30 04:08:49;;;;;;;26.45;1.25;;;4.40;99.90;;;;;;5159640;27;20038;-79
2022/12/30 04:11:15;;;;;;;1.13;0.43;;;4.30;99.90;;;;;;5159371;27;20039;-78
2022/12/30 04:13:41;;;;;;;5.82;1.65;;;4.40;99.90;;;;;;5140891;27;20046;-79
2022/12/30 04:16:07;;;;;;;7.68;2.63;;;4.40;99.90;;;;;;5159873;27;20412;-80
2022/12/30 04:18:33;;;;;;;0.10;0.10;;;4.40;99.90;;;;;;5159499;27;20091;-78
2022/12/30 04:20:58;;;;;;;2.17;1.45;;;4.40;99.90;;;;;;5159081;27;20038;-78
2022/12/30 04:23:24;;;;;;;0.00;0.00;;;4.40;99.90;;;;;;5158955;27;20039;-79
2022/12/30 04:25:49;;;;;;;0.03;0.03;;;4.40;99.90;;;;;;5159527;27;20130;-79
2022/12/30 04:28:15;;;;;;;4.50;2.20;;;4.40;99.90;;;;;;5159143;27;20042;-78
2022/12/30 04:30:40;;;;;;;0.08;0.08;;;4.40;99.90;;;;;;5159356;27;20053;-78
2022/12/30 04:33:06;;;;;;;0.30;0.22;;;4.40;99.90;;;;;;5158930;27;20482;-79
2022/12/30 04:35:32;;;;;;;0.47;0.47;;;4.50;99.90;;;;;;5159053;27;20084;-79
2022/12/30 04:37:57;;;;;;;0.70;0.57;;;4.50;99.90;;;;;;5159165;27;20035;-79
2022/12/30 04:40:23;;;;;;;0.10;0.10;;;4.60;99.90;;;;;;5158912;27;20031;-78
2022/12/30 04:42:49;;;;;;;0.20;0.20;;;4.70;99.90;;;;;;5158239;27;20038;-78
2022/12/30 04:45:14;;;;;;;0.55;0.55;;;4.70;99.90;;;;;;5158974;27;20049;-78
2022/12/30 04:47:40;;;;;;;0.25;0.25;;;4.60;99.90;;;;;;5158301;27;20046;-79
2022/12/30 04:50:07;;;;;;;1.83;1.70;;;4.70;99.90;;;;;;5158690;27;20053;-79
2022/12/30 04:52:33;;;;;;;6.53;0.35;;;4.60;99.90;;;;;;5139653;27;20046;-79
2022/12/30 04:54:59;;;;;;;7.35;2.50;;;4.60;99.90;;;;;;5158703;27;20370;-79
2022/12/30 04:57:24;;;;;;;0.32;0.32;;;4.60;99.90;;;;;;5158489;27;20115;-78
2022/12/30 04:59:50;;;;;;;0.00;0.00;;;4.70;99.90;;;;;;5158991;27;20052;-78
2022/12/30 05:02:16;;;;;;;0.00;0.00;;;4.70;99.90;;;;;;5158277;27;20432;-79
2022/12/30 05:04:42;;;;;;;0.20;0.20;;;4.80;99.90;;;;;;5158844;27;20050;-79
2022/12/30 05:07:08;;;;;;;0.00;0.00;;;4.80;99.90;;;;;;5158821;27;20039;-79
2022/12/30 05:09:33;;;;;;;0.52;0.52;;;4.90;99.90;;;;;;5158583;27;20035;-79
2022/12/30 05:11:59;;;;;;;0.00;0.00;;;4.90;99.90;;;;;;5159048;27;20094;-80
2022/12/30 05:14:25;;;;;;;0.55;0.55;;;4.90;99.90;;;;;;5158641;27;20034;-79
2022/12/30 05:16:50;;;;;;;0.00;0.00;;;4.90;99.90;;;;;;5158571;27;20110;-79
2022/12/30 05:19:16;;;;;;;0.32;0.32;;;4.90;99.90;;;;;;5157759;27;20045;-79
2022/12/30 05:21:41;;;;;;;0.20;0.20;;;4.90;99.90;;;;;;5157404;27;20058;-79
2022/12/30 05:26:53;;;;;;;0.20;0.20;;;4.80;99.90;;;;;;5158872;27;20204;-79
2022/12/30 05:29:19;;;;;;;0.00;0.00;;;4.70;99.90;;;;;;5157752;27;20086;-79
2022/12/30 05:31:44;;;;;;;0.10;0.10;;;4.60;99.90;;;;;;5157581;27;20039;-79
2022/12/30 05:34:10;;;;;;;0.00;0.00;;;4.50;99.90;;;;;;5157509;27;20477;-79
2022/12/30 05:36:38;;;;;;;0.38;0.30;;;4.40;99.90;;;;;;5157593;27;20050;-79
2022/12/30 05:39:04;;;;;;;0.52;0.52;;;4.30;99.90;;;;;;5157936;27;20417;-78
2022/12/30 05:41:29;;;;;;;0.00;0.00;;;4.20;99.90;;;;;;5157471;27;20043;-78
2022/12/30 05:43:55;;;;;;;0.00;0.00;;;4.10;99.90;;;;;;5156895;27;20058;-79
2022/12/30 05:46:21;;;;;;;0.17;0.17;;;4.10;99.90;;;;;;5157465;27;20401;-79
2022/12/30 05:48:47;;;;;;;0.20;0.20;;;4.10;99.90;;;;;;5159148;27;20053;-78
2022/12/30 05:51:13;;;;;;;0.00;0.00;;;4.20;99.90;;;;;;5162476;27;20046;-79
2022/12/30 05:53:39;;;;;;;0.08;0.08;;;4.20;99.90;;;;;;5161355;27;20505;-78
2022/12/30 05:56:05;;;;;;;0.35;0.35;;;4.10;99.90;;;;;;5161500;27;20405;-79
2022/12/30 05:58:30;;;;;;;0.00;0.00;;;4.00;99.90;;;;;;5161368;27;20042;-78
2022/12/30 06:00:57;;;;;;;0.43;0.43;;;4.00;99.90;;;;;;5161242;27;20049;-78
2022/12/30 06:03:22;;;;;;;0.00;0.00;;;4.00;99.90;;;;;;5161160;27;20477;-79
2022/12/30 06:05:54;;;;;;;0.32;0.22;;;3.90;99.90;;;;;;5161293;27;20060;-78
2022/12/30 06:08:19;;;;;;;0.00;0.00;;;3.90;99.90;;;;;;5160841;27;20086;-78
2022/12/30 06:10:45;;;;;;;1.30;0.90;;;3.90;99.90;;;;;;5157776;27;20537;-79
2022/12/30 06:13:10;;;;;;;0.70;0.50;;;3.90;99.90;;;;;;5158749;27;20050;-79
2022/12/30 06:15:36;;;;;;;0.40;0.40;;;3.90;99.90;;;;;;5158549;27;20143;-79
2022/12/30 06:18:01;;;;;;;0.38;0.38;;;4.00;99.90;;;;;;5157980;27;20449;-79
2022/12/30 06:20:27;;;;;;;0.20;0.20;;;3.90;99.90;;;;;;5158069;27;20426;-79
2022/12/30 06:22:52;;;;;;;0.00;0.00;;;3.90;99.90;;;;;;5158192;27;20041;-79
2022/12/30 06:25:18;;;;;;;0.10;0.10;;;4.00;99.90;;;;;;5158460;27;20069;-79
2022/12/30 06:27:44;;;;;;;1.00;0.68;;;4.00;99.90;;;;;;5157530;27;20118;-79
2022/12/30 06:30:10;;;;;;;0.00;0.00;;;3.90;99.90;;;;;;5157855;27;20039;-79
2022/12/30 06:32:36;;;;;;;0.00;0.00;;;3.80;99.90;;;;;;5158263;27;20042;-79
2022/12/30 06:35:01;;;;;;;0.10;0.10;;;3.90;99.90;;;;;;5160782;27;20043;-79
2022/12/30 06:37:27;;;;;;;0.90;0.45;;;3.90;99.90;;;;;;5160801;27;20039;-79
2022/12/30 06:39:52;;;;;;;0.32;0.32;;;3.90;99.90;;;;;;5161282;27;20130;-79
2022/12/30 06:42:18;;;;;;;0.38;0.30;;;3.80;99.90;;;;;;5160927;27;20050;-78
2022/12/30 06:44:43;;;;;;;0.00;0.00;;;3.80;99.90;;;;;;5160759;27;20049;-78
2022/12/30 06:47:09;;;;;;;1.85;0.80;;;3.70;99.90;;;;;;5159882;27;20042;-79
2022/12/30 06:49:34;;;;;;;0.47;0.43;;;3.70;99.90;;;;;;5158816;27;20051;-78
2022/12/30 06:52:00;;;;;;;1.00;0.75;;;3.70;99.90;;;;;;5159777;27;20039;-79
2022/12/30 06:54:26;;;;;;;0.00;0.00;;;3.80;99.90;;;;;;5159929;27;20039;-78
2022/12/30 06:56:51;;;;;;;0.40;0.37;;;3.90;99.90;;;;;;5159626;27;20042;-78
2022/12/30 06:59:17;;;;;;;0.00;0.00;;;3.80;99.90;;;;;;5158980;27;20039;-78
2022/12/30 07:01:42;;;;;;;0.40;0.40;;;3.80;99.90;;;;;;5159118;27;20038;-79
2022/12/30 07:04:08;;;;;;;0.00;0.00;;;3.80;99.90;;;;;;5160322;27;20050;-79
2022/12/30 07:06:33;;;;;;;0.00;0.00;;;3.80;99.90;;;;;;5160084;27;20043;-78
2022/12/30 07:08:59;;;;;;;0.00;0.00;;;3.70;99.90;;;;;;5160393;27;20043;-78
2022/12/30 07:11:24;;;;;;;0.03;0.03;;;3.70;99.90;;;;;;5160091;27;20042;-78
2022/12/30 07:13:50;;;;;;;0.00;0.00;;;3.70;99.90;;;;;;5160752;27;20038;-78
2022/12/30 07:16:15;;;;;;;0.20;0.20;;;3.80;99.90;;;;;;5160448;27;20038;-79
2022/12/30 07:18:41;;;;;;;0.10;0.10;;;3.70;99.90;;;;;;5159533;27;20103;-78
2022/12/30 07:21:06;;;;;;;0.52;0.52;;;3.70;99.90;;;;;;5160074;27;20069;-78
2022/12/30 07:23:32;;;;;;;0.73;0.73;;;3.80;99.90;;;;;;5160283;27;20102;-78
2022/12/30 07:25:58;;;;;;;0.10;0.10;;;3.80;99.90;;;;;;5160127;27;20051;-78
2022/12/30 07:28:23;;;;;;;0.00;0.00;;;3.80;99.90;;;;;;5160051;27;20043;-78
2022/12/30 07:30:49;;;;;;;0.00;0.00;;;3.80;99.90;;;;;;5160073;27;20047;-78
2022/12/30 07:33:14;;;;;;;0.10;0.10;;;3.80;99.90;;;;;;5159651;27;20061;-78
2022/12/30 07:35:40;;;;;;;0.75;0.75;;;3.90;99.90;;;;;;5159891;27;20397;-78
2022/12/30 07:38:05;;;;;;;0.00;0.00;;;3.80;99.90;;;;;;5159287;27;20042;-78
2022/12/30 07:40:31;;;;;;;0.20;0.20;;;3.90;99.90;;;;;;5159687;27;20043;-78
2022/12/30 07:42:57;;;;;;;2.47;1.75;;;3.80;99.90;;;;;;5159494;27;20043;-79
2022/12/30 07:45:22;;;;;;;0.05;0.05;;;3.90;99.90;;;;;;5159578;27;20091;-80
2022/12/30 07:47:48;;;;;;;4.43;0.57;;;3.90;99.90;;;;;;5160132;27;20077;-80
2022/12/30 07:50:14;;;;;;;3.10;1.38;;;3.90;99.90;;;;;;5167646;27;20114;-79
2022/12/30 07:52:39;;;;;;;0.10;0.10;;;4.00;99.90;;;;;;5165315;27;20064;-79
2022/12/30 07:55:05;;;;;;;0.00;0.00;;;4.00;99.90;;;;;;5159949;27;20030;-79
2022/12/30 07:57:31;;;;;;;0.17;0.17;;;4.10;99.90;;;;;;5160174;27;20039;-79
2022/12/30 07:59:57;;;;;;;0.38;0.38;;;4.10;99.90;;;;;;5159639;27;20410;-79
2022/12/30 08:02:23;;;;;;;6.45;1.65;;;4.00;99.90;;;;;;5160058;27;20397;-79
2022/12/30 08:04:48;;;;;;;0.10;0.10;;;4.10;99.90;;;;;;5160575;27;20041;-79
2022/12/30 08:07:18;;;;;;;0.10;0.10;;;4.00;99.90;;;;;;5159575;27;20043;-79
2022/12/30 08:09:45;;;;;;;0.00;0.00;;;4.00;99.90;;;;;;5158805;27;20067;-80
2022/12/30 08:12:11;;;;;;;0.30;0.30;;;4.00;99.90;;;;;;5158412;27;20043;-80
2022/12/30 08:14:36;;;;;;;0.00;0.00;;;4.00;99.90;;;;;;5159314;27;20057;-80
2022/12/30 08:17:02;;;;;;;1.27;0.85;;;4.10;99.90;;;;;;5159536;27;20078;-80
2022/12/30 08:19:28;;;;;;;0.10;0.10;;;4.20;99.90;;;;;;5158931;27;20278;-80
2022/12/30 08:21:54;;;;;;;0.00;0.00;;;4.20;99.90;;;;;;5157482;27;20038;-79
2022/12/30 08:24:19;;;;;;;0.00;0.00;;;4.30;99.90;;;;;;5157886;27;20705;-79
2022/12/30 08:26:45;;;;;;;0.00;0.00;;;4.30;99.90;;;;;;5157253;27;20046;-80
2022/12/30 08:29:11;;;;;;;6.22;1.83;;;4.40;99.90;;;;;;5157981;27;20048;-79
2022/12/30 08:31:36;;;;;;;0.10;0.10;;;4.50;99.90;;;;;;5156993;27;20047;-79
2022/12/30 08:34:02;;;;;;;0.00;0.00;;;4.50;99.90;;;;;;5156370;27;20117;-80
2022/12/30 08:36:29;;;;;;;0.00;0.00;;;4.50;99.90;;;;;;5156503;27;20489;-79
2022/12/30 08:38:58;;;;;;;0.00;0.00;;;4.60;99.90;;;;;;5156005;27;20059;-79
2022/12/30 08:41:30;;;;;;;0.35;0.30;;;4.50;99.90;;;;;;5156317;27;20043;-79
2022/12/30 08:43:57;;;;;;;0.03;0.03;;;4.60;99.90;;;;;;5156147;27;20046;-80
2022/12/30 08:46:25;;;;;;;0.00;0.00;;;4.70;99.90;;;;;;5157394;27;20039;-80
2022/12/30 08:48:52;;;;;;;0.00;0.00;;;4.70;99.90;;;;;;5157407;27;20080;-80
2022/12/30 08:51:18;;;;;;;0.00;0.00;;;4.70;99.90;;;;;;5157259;27;20035;-79
2022/12/30 08:53:43;;;;;;;3.83;1.15;;;5.90;99.90;;;;;;5138343;27;20049;-79
2022/12/30 08:56:22;;;;;;;11.70;1.10;;;4.70;99.90;;;;;;5156398;27;20043;-80
2022/12/30 08:58:48;;;;;;;0.32;0.28;;;4.80;99.90;;;;;;5157119;27;20043;-80
2022/12/30 09:01:17;;;;;;;0.10;0.10;;;4.90;99.90;;;;;;5156728;27;20053;-80
2022/12/30 09:03:43;;;;;;;0.22;0.22;;;4.90;99.90;;;;;;5157183;27;20042;-80
2022/12/30 09:06:10;;;;;;;0.75;0.60;;;5.00;99.90;;;;;;5156832;27;20352;-80
2022/12/30 09:08:36;;;;;;;0.45;0.45;;;5.00;99.90;;;;;;5156732;27;20699;-79
2022/12/30 09:11:12;;;;;;;0.10;0.10;;;5.00;99.90;;;;;;5156942;27;20035;-80
2022/12/30 09:13:38;;;;;;;0.00;0.00;;;5.00;99.90;;;;;;5157050;27;20043;-80
2022/12/30 09:16:06;;;;;;;0.40;0.40;;;5.00;99.90;;;;;;5156580;27;20107;-80
2022/12/30 09:18:32;;;;;;;18.10;1.27;;;5.10;99.90;;;;;;5156360;27;20039;-80
2022/12/30 09:20:57;;;;;;;0.50;0.50;;;5.10;99.90;;;;;;5156201;27;20113;-80
2022/12/30 09:23:23;;;;;;;4.57;2.90;;;5.10;99.90;;;;;;5155703;27;20035;-80
2022/12/30 09:25:49;;;;;;;0.03;0.03;;;5.20;99.90;;;;;;5157070;27;20157;-80
2022/12/30 09:28:15;;;;;;;0.60;0.57;;;5.30;99.90;;;;;;5157104;27;20273;-79
2022/12/30 09:30:40;;;;;;;0.65;0.60;;;5.40;99.90;;;;;;5157128;27;20054;-80
2022/12/30 09:33:06;;;;;;;0.55;0.55;;;5.40;99.90;;;;;;5156717;27;20045;-80
2022/12/30 09:35:32;;;;;;;6.25;0.47;;;5.40;99.90;;;;;;5156634;27;20449;-80
2022/12/30 09:37:58;;;;;;;0.00;0.00;;;5.50;99.90;;;;;;5156133;27;20039;-79
2022/12/30 09:40:47;;;;;;;0.10;0.10;;;5.60;99.90;;;;;;5155142;27;20523;-80
2022/12/30 09:43:34;;;;;;;6.93;2.22;;;5.70;5.90;;;;;;5156508;27;20043;-80
2022/12/30 09:46:18;;;;;;;0.10;0.10;;;5.70;45.30;;;;;;5157804;27;20049;-80
2022/12/30 09:49:03;;;;;;;0.13;0.13;;;5.80;1.00;;;;;;5157572;27;20053;-80
2022/12/30 09:51:42;;;;;;;0.20;0.20;;;5.80;51.40;;;;;;5158800;27;20049;-79
2022/12/30 09:54:14;;;;;;;4.32;1.73;;;5.90;73.10;;;;;;5159485;27;20046;-80
2022/12/30 09:56:43;;;;;;;0.00;0.00;;;5.90;1.00;;;;;;5158299;27;20049;-80
2022/12/30 09:59:28;;;;;;;0.20;0.20;;;6.00;1.00;;;;;;5158564;27;20110;-80
2022/12/30 10:02:04;;;;;;;0.00;0.00;;;6.20;99.90;;;;;;5158952;27;20046;-79
2022/12/30 10:04:35;;;;;;;0.00;0.00;;;6.20;99.90;;;;;;5158403;27;20058;-79
2022/12/30 10:07:33;;;;;;;9.50;2.10;;;6.20;99.90;;;;;;5157656;27;20095;-79
2022/12/30 10:10:17;;;;;;;0.00;0.00;;;6.30;92.90;;;;;;5158796;27;20051;-79
2022/12/30 10:13:28;;;;;;;0.17;0.17;;;6.30;99.90;;;;;;5157327;27;20525;-79
2022/12/30 10:16:07;;;;;;;0.00;0.00;;;6.30;99.90;;;;;;5152509;27;20050;-79
2022/12/30 10:18:38;;;;;;;1.42;1.33;;;6.40;41.60;;;;;;5157362;27;20043;-79
2022/12/30 10:21:30;;;;;;;0.10;0.10;;;6.40;99.90;;;;;;5157945;27;20068;-79
2022/12/30 10:24:03;;;;;;;0.30;0.25;;;6.50;99.90;;;;;;5157574;27;20496;-79
2022/12/30 10:26:44;;;;;;;1.45;0.55;;;6.50;1.00;;;;;;5157350;27;20531;-79
2022/12/30 10:29:29;;;;;;;0.45;0.45;;;6.70;1.00;;;;;;5157621;27;20058;-79
2022/12/30 10:31:55;;;;;;;0.00;0.00;;;6.70;99.90;;;;;;5157525;27;20042;-79
2022/12/30 10:34:28;;;;;;;0.10;0.10;;;6.80;1.00;;;;;;5157854;27;20034;-79
2022/12/30 10:37:02;;;;;;;6.18;2.33;;;6.80;1.00;;;;;;5160999;27;20051;-79
2022/12/30 10:39:38;;;;;;;0.32;0.32;;;6.90;99.90;;;;;;5161483;27;20446;-79
2022/12/30 10:42:16;;;;;;;0.57;0.57;;;6.90;99.90;;;;;;5160899;27;20434;-79
2022/12/30 10:45:02;;;;;;;6.22;1.35;;;6.90;99.90;;;;;;5160768;27;20054;-80
2022/12/30 10:47:35;;;;;;;0.10;0.10;;;7.00;1.00;;;;;;5161063;27;20059;-79
2022/12/30 10:50:10;;;;;;;0.05;0.05;;;7.20;1.00;;;;;;5160610;27;20050;-79
2022/12/30 10:52:36;;;;;;;0.00;0.00;;;7.20;99.90;;;;;;5160016;27;20046;-79
2022/12/30 10:55:25;;;;;;;0.63;0.35;;;7.20;1.00;;;;;;5160717;27;20163;-79
2022/12/30 10:58:01;;;;;;;0.00;0.00;;;7.30;76.20;;;;;;5161138;27;20046;-79
2022/12/30 11:00:29;;;;;;;0.28;0.25;;;7.40;99.90;;;;;;5160846;27;20493;-79
2022/12/30 11:03:03;;;;;;;0.00;0.00;;;7.40;99.90;;;;;;5160532;27;20481;-79
2022/12/30 11:05:33;;;;;;;0.00;0.00;;;7.40;99.90;;;;;;5160562;27;20050;-79
2022/12/30 11:08:01;;;;;;;0.25;0.10;;;7.50;99.90;;;;;;5160843;27;20477;-79
2022/12/30 11:10:27;;;;;;;0.75;0.65;;;7.40;75.40;;;;;;5160702;27;20481;-79
2022/12/30 11:15:54;;;;;;;0.43;0.43;;;7.40;1.00;;;;;;5160413;27;20516;-79
2022/12/30 11:18:24;;;;;;;0.50;0.50;;;7.40;99.90;;;;;;5160623;27;20053;-79
2022/12/30 11:20:58;;;;;;;0.00;0.00;;;7.50;1.00;;;;;;5160773;27;20042;-79
2022/12/30 11:23:39;;;;;;;0.15;0.15;;;7.50;1.00;;;;;;5160412;27;20565;-79
2022/12/30 11:26:21;;;;;;;0.00;0.00;;;7.60;99.90;;;;;;5157970;27;20042;-79
2022/12/30 11:29:06;;;;;;;0.05;0.03;;;7.60;80.10;;;;;;5154187;27;20051;-79
2022/12/30 11:31:41;;;;;;;1.33;0.88;;;7.60;96.90;;;;;;5155482;27;20405;-79
2022/12/30 11:34:20;;;;;;;0.10;0.10;;;7.70;1.00;;;;;;5155318;27;20508;-79
2022/12/30 11:36:46;;;;;;;2.17;0.55;;;7.60;99.90;;;;;;5155592;27;20047;-79
2022/12/30 11:39:14;;;;;;;0.05;0.05;;;7.70;99.90;;;;;;5155782;27;20452;-79
2022/12/30 11:41:46;;;;;;;0.00;0.00;;;7.80;99.90;;;;;;5155876;27;20046;-79
2022/12/30 11:44:14;;;;;;;2.13;0.85;;;7.90;23.50;;;;;;5155455;27;20046;-79
2022/12/30 11:46:46;;;;;;;1.48;0.35;;;7.90;63.90;;;;;;5154950;27;20517;-80
2022/12/30 11:49:45;;;;;;;0.00;0.00;;;7.90;99.90;;;;;;5156080;27;20049;-80
2022/12/30 11:52:26;;;;;;;0.32;0.20;;;8.00;1.00;;;;;;5155255;27;20050;-79
2022/12/30 11:54:58;;;;;;;0.05;0.05;;;8.00;1.00;;;;;;5155790;27;20042;-80
2022/12/30 11:57:30;;;;;;;0.10;0.10;;;8.10;99.90;;;;;;5155255;27;20043;-80
2022/12/30 12:00:01;;;;;;;0.80;0.55;;;8.20;99.90;;;;;;5155537;27;20049;-79
2022/12/30 12:02:40;;;;;;;0.00;0.00;;;8.10;1.00;;;;;;5155340;27;20043;-79
2022/12/30 12:05:50;;;;;;;2.45;0.55;;;8.20;99.90;;;;;;5155454;27;20416;-79
2022/12/30 12:08:51;;;;;;;0.85;0.85;;;8.10;99.90;;;;;;5132123;27;20122;-79
2022/12/30 12:11:21;;;;;;;0.00;0.00;;;8.20;1.00;;;;;;5132059;27;20066;-79
2022/12/30 12:14:05;;;;;;;0.03;0.03;;;8.30;99.90;;;;;;5154919;27;20126;-79
2022/12/30 12:16:58;;;;;;;2.10;1.90;;;8.30;99.90;;;;;;5155064;27;20049;-80
2022/12/30 12:19:33;;;;;;;0.15;0.15;;;8.30;99.90;;;;;;5154760;27;20038;-80
2022/12/30 12:22:02;;;;;;;0.20;0.20;;;8.40;33.00;;;;;;5154623;27;20098;-79
2022/12/30 12:24:38;;;;;;;1.08;0.17;;;8.30;99.90;;;;;;5155113;27;20059;-79
2022/12/30 12:27:14;;;;;;;1.17;1.08;;;8.30;50.90;;;;;;5154406;27;20551;-80
2022/12/30 12:29:40;;;;;;;0.32;0.20;;;8.40;99.90;;;;;;5134261;27;20057;-80
2022/12/30 12:32:20;;;;;;;2.03;0.88;;;8.40;90.60;;;;;;5134107;27;20127;-80
2022/12/30 12:35:14;;;;;;;0.15;0.15;;;8.50;1.00;;;;;;5134028;27;20095;-79
2022/12/30 12:38:17;;;;;;;0.17;0.17;;;8.40;99.90;;;;;;5136907;27;20042;-79
2022/12/30 12:41:19;;;;;;;0.00;0.00;;;8.50;99.90;;;;;;5155002;27;20664;-79
2022/12/30 12:44:11;;;;;;;0.00;0.00;;;8.50;31.40;;;;;;5154611;27;20103;-79
2022/12/30 12:47:02;;;;;;;0.05;0.05;;;8.50;1.00;;;;;;5155511;27;20055;-80
2022/12/30 12:49:55;;;;;;;19.38;0.35;;;8.60;1.00;;;;;;5154522;27;20050;-79
2022/12/30 12:52:39;;;;;;;0.10;0.10;;;8.60;1.00;;;;;;5155192;27;20039;-79
2022/12/30 12:55:18;;;;;;;0.10;0.10;;;8.70;99.90;;;;;;5155532;27;20074;-79
2022/12/30 12:58:23;;;;;;;0.00;0.00;;;8.70;99.90;;;;;;5153911;27;20042;-79
2022/12/30 13:01:16;;;;;;;0.00;0.00;;;8.70;1.00;;;;;;5153597;27;20137;-79
2022/12/30 13:03:56;;;;;;;3.65;1.38;;;8.80;99.90;;;;;;5154710;27;20070;-79
2022/12/30 13:06:40;;;;;;;1.00;0.20;;;8.70;99.90;;;;;;5154679;27;20124;-79
2022/12/30 13:09:26;;;;;;;0.00;0.00;;;8.80;99.90;;;;;;5154819;27;20125;-79
2022/12/30 13:12:06;;;;;;;1.98;0.43;;;8.70;99.90;;;;;;5154797;27;20458;-80
2022/12/30 13:14:40;;;;;;;0.20;0.20;;;8.80;99.90;;;;;;5154595;27;20076;-79
2022/12/30 13:17:18;;;;;;;0.00;0.00;;;8.80;99.90;;;;;;5155075;27;20516;-79
2022/12/30 13:19:52;;;;;;;0.00;0.00;;;8.90;99.90;;;;;;5133771;27;20147;-79
2022/12/30 13:22:24;;;;;;;0.35;0.35;;;8.90;99.90;;;;;;5133663;27;20032;-79
2022/12/30 13:24:53;;;;;;;0.00;0.00;;;8.90;92.20;;;;;;5134429;27;20047;-80
2022/12/30 13:27:32;;;;;;;0.00;0.00;;;9.00;12.50;;;;;;5133707;27;20046;-79
2022/12/30 13:30:00;;;;;;;0.13;0.10;;;9.00;34.80;;;;;;5154723;27;20074;-79
2022/12/30 13:32:51;;;;;;;0.80;0.80;;;9.10;1.00;;;;;;5153707;27;20536;-79
2022/12/30 13:35:42;;;;;;;0.00;0.00;;;8.90;1.00;;;;;;5153806;27;20081;-79
2022/12/30 13:38:55;;;;;;;0.00;0.00;;;9.00;1.00;;;;;;5158612;27;20053;-80
2022/12/30 13:41:21;;;;;;;0.00;0.00;;;9.00;1.00;;;;;;5158160;27;20047;-79
2022/12/30 13:43:57;;;;;;;1.17;0.30;;;9.20;1.00;;;;;;5157889;27;20126;-79
2022/12/30 13:46:24;;;;;;;;;;;9.20;1.00;;;;;;5157520;27;20127;-79
2022/12/30 13:48:56;;;;;;;1.15;0.30;;;9.10;1.00;;;;;;5155222;27;20313;-79
2022/12/30 13:51:24;;;;;;;0.00;0.00;;;9.20;99.90;;;;;;5153205;27;20058;-79
2022/12/30 13:53:56;;;;;;;0.00;0.00;;;9.20;99.90;;;;;;5153063;27;20042;-80
2022/12/30 13:56:43;;;;;;;0.00;0.00;;;9.10;99.90;;;;;;5153489;27;20074;-79
2022/12/30 13:59:35;;;;;;;0.15;0.15;;;9.10;99.90;;;;;;5153713;27;20041;-80
2022/12/30 14:02:19;;;;;;;0.00;0.00;;;9.20;99.90;;;;;;5153789;27;20061;-79
2022/12/30 14:04:46;;;;;;;0.00;0.00;;;9.30;99.90;;;;;;5153379;27;20504;-79
2022/12/30 14:07:37;;;;;;;1.20;1.10;;;9.20;99.90;;;;;;5153798;27;20118;-80
2022/12/30 14:10:17;;;;;;;0.20;0.20;;;9.30;99.90;;;;;;5134736;27;20049;-79
2022/12/30 14:13:22;;;;;;;0.00;0.00;;;9.20;99.90;;;;;;5137496;27;20111;-79
2022/12/30 14:15:51;;;;;;;0.00;0.00;;;9.40;99.90;;;;;;5052506;28;20041;-80